sensor_id;sensor_type;location;lat;lon;timestamp;temperature;humidity
76239;SHT30;65043;48.392;-4.472;2022-12-18T00:01:04;4.95;63.48
76239;SHT30;65043;48.392;-4.472;2022-12-18T00:03:33;4.95;63.61
76239;SHT30;65043;48.392;-4.472;2022-12-18T00:05:59;4.95;63.75
76239;SHT30;65043;48.392;-4.472;2022-12-18T00:08:24;4.97;63.76
76239;SHT30;65043;48.392;-4.472;2022-12-18T00:10:51;4.97;63.76
76239;SHT30;65043;48.392;-4.472;2022-12-18T00:13:16;4.95;63.61
76239;SHT30;65043;48.392;-4.472;2022-12-18T00:15:41;4.97;63.92
76239;SHT30;65043;48.392;-4.472;2022-12-18T00:18:07;4.97;64.19
76239;SHT30;65043;48.392;-4.472;2022-12-18T00:20:39;4.98;64.07
76239;SHT30;65043;48.392;-4.472;2022-12-18T00:23:06;4.98;64.28
76239;SHT30;65043;48.392;-4.472;2022-12-18T00:25:35;4.99;64.34
76239;SHT30;65043;48.392;-4.472;2022-12-18T00:28:02;4.97;64.00
76239;SHT30;65043;48.392;-4.472;2022-12-18T00:30:27;4.99;64.23
76239;SHT30;65043;48.392;-4.472;2022-12-18T00:32:53;4.98;64.69
76239;SHT30;65043;48.392;-4.472;2022-12-18T00:35:18;4.99;64.38
76239;SHT30;65043;48.392;-4.472;2022-12-18T00:37:43;4.99;64.55
76239;SHT30;65043;48.392;-4.472;2022-12-18T00:40:09;4.99;64.56
76239;SHT30;65043;48.392;-4.472;2022-12-18T00:42:35;4.99;64.32
76239;SHT30;65043;48.392;-4.472;2022-12-18T00:45:18;4.99;64.58
76239;SHT30;65043;48.392;-4.472;2022-12-18T00:47:44;5.01;64.72
76239;SHT30;65043;48.392;-4.472;2022-12-18T00:50:09;5.01;64.72
76239;SHT30;65043;48.392;-4.472;2022-12-18T00:52:35;4.99;64.92
76239;SHT30;65043;48.392;-4.472;2022-12-18T00:55:00;5.01;65.08
76239;SHT30;65043;48.392;-4.472;2022-12-18T00:57:26;5.05;65.20
76239;SHT30;65043;48.392;-4.472;2022-12-18T00:59:51;5.04;65.42
76239;SHT30;65043;48.392;-4.472;2022-12-18T01:02:16;5.04;65.55
76239;SHT30;65043;48.392;-4.472;2022-12-18T01:04:42;5.02;65.59
76239;SHT30;65043;48.392;-4.472;2022-12-18T01:07:07;5.04;65.47
76239;SHT30;65043;48.392;-4.472;2022-12-18T01:09:32;5.05;65.73
76239;SHT30;65043;48.392;-4.472;2022-12-18T01:11:58;5.05;65.44
76239;SHT30;65043;48.392;-4.472;2022-12-18T01:14:23;5.04;65.89
76239;SHT30;65043;48.392;-4.472;2022-12-18T01:16:49;5.05;65.79
76239;SHT30;65043;48.392;-4.472;2022-12-18T01:19:14;5.08;65.99
76239;SHT30;65043;48.392;-4.472;2022-12-18T01:21:40;5.07;65.93
76239;SHT30;65043;48.392;-4.472;2022-12-18T01:24:05;5.08;66.22
76239;SHT30;65043;48.392;-4.472;2022-12-18T01:26:31;5.09;66.08
76239;SHT30;65043;48.392;-4.472;2022-12-18T01:28:57;5.08;66.00
76239;SHT30;65043;48.392;-4.472;2022-12-18T01:31:24;5.07;65.98
76239;SHT30;65043;48.392;-4.472;2022-12-18T01:33:51;5.07;66.25
76239;SHT30;65043;48.392;-4.472;2022-12-18T01:36:17;5.09;66.07
76239;SHT30;65043;48.392;-4.472;2022-12-18T01:38:44;5.11;66.47
76239;SHT30;65043;48.392;-4.472;2022-12-18T01:41:10;5.12;66.75
76239;SHT30;65043;48.392;-4.472;2022-12-18T01:43:54;5.16;67.22
76239;SHT30;65043;48.392;-4.472;2022-12-18T01:46:23;5.19;67.28
76239;SHT30;65043;48.392;-4.472;2022-12-18T01:48:51;5.19;67.32
76239;SHT30;65043;48.392;-4.472;2022-12-18T01:51:17;5.22;67.74
76239;SHT30;65043;48.392;-4.472;2022-12-18T01:53:44;5.24;67.60
76239;SHT30;65043;48.392;-4.472;2022-12-18T01:56:13;5.25;67.65
76239;SHT30;65043;48.392;-4.472;2022-12-18T02:01:04;5.29;68.03
76239;SHT30;65043;48.392;-4.472;2022-12-18T02:03:30;5.32;67.84
76239;SHT30;65043;48.392;-4.472;2022-12-18T02:06:15;5.32;67.97
76239;SHT30;65043;48.392;-4.472;2022-12-18T02:09:02;5.35;68.18
76239;SHT30;65043;48.392;-4.472;2022-12-18T02:14:18;5.35;68.19
76239;SHT30;65043;48.392;-4.472;2022-12-18T02:17:38;5.36;68.28
76239;SHT30;65043;48.392;-4.472;2022-12-18T02:22:32;5.35;68.47
76239;SHT30;65043;48.392;-4.472;2022-12-18T02:27:32;5.40;68.74
76239;SHT30;65043;48.392;-4.472;2022-12-18T02:30:00;5.42;68.71
76239;SHT30;65043;48.392;-4.472;2022-12-18T02:32:34;5.46;68.80
76239;SHT30;65043;48.392;-4.472;2022-12-18T02:35:04;5.47;69.07
76239;SHT30;65043;48.392;-4.472;2022-12-18T02:37:31;5.52;69.41
76239;SHT30;65043;48.392;-4.472;2022-12-18T02:39:58;5.55;69.00
76239;SHT30;65043;48.392;-4.472;2022-12-18T02:42:24;5.55;69.44
76239;SHT30;65043;48.392;-4.472;2022-12-18T02:44:51;5.60;69.33
76239;SHT30;65043;48.392;-4.472;2022-12-18T02:47:19;5.60;69.52
76239;SHT30;65043;48.392;-4.472;2022-12-18T02:57:58;5.70;69.76
76239;SHT30;65043;48.392;-4.472;2022-12-18T03:00:37;5.70;69.89
76239;SHT30;65043;48.392;-4.472;2022-12-18T03:05:42;5.73;70.38
76239;SHT30;65043;48.392;-4.472;2022-12-18T03:08:14;5.74;70.15
76239;SHT30;65043;48.392;-4.472;2022-12-18T03:10:45;5.77;70.33
76239;SHT30;65043;48.392;-4.472;2022-12-18T03:13:28;5.78;70.15
76239;SHT30;65043;48.392;-4.472;2022-12-18T03:15:58;5.81;70.00
76239;SHT30;65043;48.392;-4.472;2022-12-18T03:18:30;5.80;70.30
76239;SHT30;65043;48.392;-4.472;2022-12-18T03:21:00;5.81;70.76
76239;SHT30;65043;48.392;-4.472;2022-12-18T03:23:31;5.81;70.53
76239;SHT30;65043;48.392;-4.472;2022-12-18T03:26:01;5.83;70.54
76239;SHT30;65043;48.392;-4.472;2022-12-18T03:28:30;5.83;70.92
76239;SHT30;65043;48.392;-4.472;2022-12-18T03:30:59;5.86;70.48
76239;SHT30;65043;48.392;-4.472;2022-12-18T03:33:29;5.87;70.85
76239;SHT30;65043;48.392;-4.472;2022-12-18T03:35:57;5.87;70.83
76239;SHT30;65043;48.392;-4.472;2022-12-18T03:38:22;5.90;71.16
76239;SHT30;65043;48.392;-4.472;2022-12-18T03:46:46;5.90;71.43
76239;SHT30;65043;48.392;-4.472;2022-12-18T03:52:41;5.94;72.20
76239;SHT30;65043;48.392;-4.472;2022-12-18T03:55:09;5.93;71.76
76239;SHT30;65043;48.392;-4.472;2022-12-18T03:57:35;5.97;72.16
76239;SHT30;65043;48.392;-4.472;2022-12-18T04:00:09;5.94;72.56
76239;SHT30;65043;48.392;-4.472;2022-12-18T04:02:37;6.01;72.59
76239;SHT30;65043;48.392;-4.472;2022-12-18T04:05:07;6.04;72.37
76239;SHT30;65043;48.392;-4.472;2022-12-18T04:07:33;6.03;73.44
76239;SHT30;65043;48.392;-4.472;2022-12-18T04:10:01;6.05;72.72
76239;SHT30;65043;48.392;-4.472;2022-12-18T04:12:30;6.05;72.52
76239;SHT30;65043;48.392;-4.472;2022-12-18T04:14:56;6.07;72.37
76239;SHT30;65043;48.392;-4.472;2022-12-18T04:17:21;6.08;72.38
76239;SHT30;65043;48.392;-4.472;2022-12-18T04:19:47;6.11;72.06
76239;SHT30;65043;48.392;-4.472;2022-12-18T04:22:13;6.13;71.99
76239;SHT30;65043;48.392;-4.472;2022-12-18T04:24:38;6.17;70.72
76239;SHT30;65043;48.392;-4.472;2022-12-18T04:27:03;6.22;71.48
76239;SHT30;65043;48.392;-4.472;2022-12-18T04:29:29;6.34;74.76
76239;SHT30;65043;48.392;-4.472;2022-12-18T04:31:55;6.41;75.58
76239;SHT30;65043;48.392;-4.472;2022-12-18T04:34:21;6.53;75.91
76239;SHT30;65043;48.392;-4.472;2022-12-18T04:36:46;6.59;75.45
76239;SHT30;65043;48.392;-4.472;2022-12-18T04:39:12;6.62;76.26
76239;SHT30;65043;48.392;-4.472;2022-12-18T04:41:38;6.68;76.44
76239;SHT30;65043;48.392;-4.472;2022-12-18T04:44:04;6.72;76.02
76239;SHT30;65043;48.392;-4.472;2022-12-18T04:46:29;6.76;75.92
76239;SHT30;65043;48.392;-4.472;2022-12-18T04:48:54;6.79;76.73
76239;SHT30;65043;48.392;-4.472;2022-12-18T04:51:21;6.83;76.26
76239;SHT30;65043;48.392;-4.472;2022-12-18T04:53:46;6.86;76.32
76239;SHT30;65043;48.392;-4.472;2022-12-18T04:56:13;6.87;77.35
76239;SHT30;65043;48.392;-4.472;2022-12-18T04:58:41;6.93;77.59
76239;SHT30;65043;48.392;-4.472;2022-12-18T05:01:07;6.94;78.25
76239;SHT30;65043;48.392;-4.472;2022-12-18T05:03:34;7.00;78.19
76239;SHT30;65043;48.392;-4.472;2022-12-18T05:06:00;7.04;78.19
76239;SHT30;65043;48.392;-4.472;2022-12-18T05:08:26;7.06;79.30
76239;SHT30;65043;48.392;-4.472;2022-12-18T05:13:26;7.14;78.76
76239;SHT30;65043;48.392;-4.472;2022-12-18T05:15:52;7.13;78.81
76239;SHT30;65043;48.392;-4.472;2022-12-18T05:18:17;7.16;79.18
76239;SHT30;65043;48.392;-4.472;2022-12-18T05:20:43;7.13;79.49
76239;SHT30;65043;48.392;-4.472;2022-12-18T05:23:08;7.11;78.74
76239;SHT30;65043;48.392;-4.472;2022-12-18T05:25:33;7.13;79.97
76239;SHT30;65043;48.392;-4.472;2022-12-18T05:27:59;7.10;79.86
76239;SHT30;65043;48.392;-4.472;2022-12-18T05:30:24;7.08;81.42
76239;SHT30;65043;48.392;-4.472;2022-12-18T05:32:50;7.07;83.15
76239;SHT30;65043;48.392;-4.472;2022-12-18T05:35:16;7.08;83.35
76239;SHT30;65043;48.392;-4.472;2022-12-18T05:37:41;7.11;83.59
76239;SHT30;65043;48.392;-4.472;2022-12-18T05:40:07;7.13;84.46
76239;SHT30;65043;48.392;-4.472;2022-12-18T05:42:32;7.11;84.55
76239;SHT30;65043;48.392;-4.472;2022-12-18T05:44:58;7.11;84.37
76239;SHT30;65043;48.392;-4.472;2022-12-18T05:47:23;7.16;84.37
76239;SHT30;65043;48.392;-4.472;2022-12-18T05:49:49;7.17;84.13
76239;SHT30;65043;48.392;-4.472;2022-12-18T05:52:14;7.21;84.14
76239;SHT30;65043;48.392;-4.472;2022-12-18T05:54:40;7.23;84.20
76239;SHT30;65043;48.392;-4.472;2022-12-18T05:57:05;7.24;83.97
76239;SHT30;65043;48.392;-4.472;2022-12-18T05:59:30;7.27;84.11
76239;SHT30;65043;48.392;-4.472;2022-12-18T06:01:56;7.30;84.23
76239;SHT30;65043;48.392;-4.472;2022-12-18T06:04:22;7.27;83.98
76239;SHT30;65043;48.392;-4.472;2022-12-18T06:06:48;7.31;84.12
76239;SHT30;65043;48.392;-4.472;2022-12-18T06:09:13;7.32;84.43
76239;SHT30;65043;48.392;-4.472;2022-12-18T06:11:38;7.37;84.14
76239;SHT30;65043;48.392;-4.472;2022-12-18T06:14:05;7.37;84.18
76239;SHT30;65043;48.392;-4.472;2022-12-18T06:16:32;7.43;84.00
76239;SHT30;65043;48.392;-4.472;2022-12-18T06:19:02;7.47;83.99
76239;SHT30;65043;48.392;-4.472;2022-12-18T06:21:28;7.44;84.64
76239;SHT30;65043;48.392;-4.472;2022-12-18T06:23:55;7.47;84.18
76239;SHT30;65043;48.392;-4.472;2022-12-18T06:26:21;7.50;84.34
76239;SHT30;65043;48.392;-4.472;2022-12-18T06:28:47;7.54;84.42
76239;SHT30;65043;48.392;-4.472;2022-12-18T06:31:12;7.58;84.78
76239;SHT30;65043;48.392;-4.472;2022-12-18T06:33:38;7.59;84.55
76239;SHT30;65043;48.392;-4.472;2022-12-18T06:36:06;7.62;84.59
76239;SHT30;65043;48.392;-4.472;2022-12-18T06:38:33;7.62;84.51
76239;SHT30;65043;48.392;-4.472;2022-12-18T06:40:59;7.64;84.09
76239;SHT30;65043;48.392;-4.472;2022-12-18T06:43:25;7.66;84.54
76239;SHT30;65043;48.392;-4.472;2022-12-18T06:45:51;7.71;84.56
76239;SHT30;65043;48.392;-4.472;2022-12-18T06:48:22;7.75;84.79
76239;SHT30;65043;48.392;-4.472;2022-12-18T06:50:47;7.78;84.71
76239;SHT30;65043;48.392;-4.472;2022-12-18T06:53:13;7.74;85.39
76239;SHT30;65043;48.392;-4.472;2022-12-18T06:55:39;7.79;85.12
76239;SHT30;65043;48.392;-4.472;2022-12-18T06:58:04;7.81;85.43
76239;SHT30;65043;48.392;-4.472;2022-12-18T07:00:29;7.82;86.00
76239;SHT30;65043;48.392;-4.472;2022-12-18T07:02:55;7.86;86.43
76239;SHT30;65043;48.392;-4.472;2022-12-18T07:05:20;7.87;87.10
76239;SHT30;65043;48.392;-4.472;2022-12-18T07:07:46;7.89;86.85
76239;SHT30;65043;48.392;-4.472;2022-12-18T07:10:11;7.95;87.17
76239;SHT30;65043;48.392;-4.472;2022-12-18T07:12:37;7.99;87.46
76239;SHT30;65043;48.392;-4.472;2022-12-18T07:15:03;8.05;87.23
76239;SHT30;65043;48.392;-4.472;2022-12-18T07:17:28;8.07;86.81
76239;SHT30;65043;48.392;-4.472;2022-12-18T07:19:54;8.10;87.19
76239;SHT30;65043;48.392;-4.472;2022-12-18T07:22:20;8.14;87.61
76239;SHT30;65043;48.392;-4.472;2022-12-18T07:24:45;8.17;87.40
76239;SHT30;65043;48.392;-4.472;2022-12-18T07:27:10;8.24;87.01
76239;SHT30;65043;48.392;-4.472;2022-12-18T07:29:36;8.26;86.75
76239;SHT30;65043;48.392;-4.472;2022-12-18T07:32:01;8.27;87.53
76239;SHT30;65043;48.392;-4.472;2022-12-18T07:34:26;8.27;87.43
76239;SHT30;65043;48.392;-4.472;2022-12-18T07:36:52;8.30;88.04
76239;SHT30;65043;48.392;-4.472;2022-12-18T07:39:17;8.36;88.10
76239;SHT30;65043;48.392;-4.472;2022-12-18T07:41:43;8.37;87.43
76239;SHT30;65043;48.392;-4.472;2022-12-18T07:44:11;8.38;87.72
76239;SHT30;65043;48.392;-4.472;2022-12-18T07:46:37;8.43;87.50
76239;SHT30;65043;48.392;-4.472;2022-12-18T07:49:03;8.47;88.08
76239;SHT30;65043;48.392;-4.472;2022-12-18T07:51:28;8.47;88.16
76239;SHT30;65043;48.392;-4.472;2022-12-18T07:53:54;8.54;88.21
76239;SHT30;65043;48.392;-4.472;2022-12-18T07:56:20;8.57;88.66
76239;SHT30;65043;48.392;-4.472;2022-12-18T07:58:45;8.64;88.77
76239;SHT30;65043;48.392;-4.472;2022-12-18T08:01:11;8.68;88.35
76239;SHT30;65043;48.392;-4.472;2022-12-18T08:03:38;8.67;88.45
76239;SHT30;65043;48.392;-4.472;2022-12-18T08:06:05;8.69;88.59
76239;SHT30;65043;48.392;-4.472;2022-12-18T08:08:32;8.72;88.34
76239;SHT30;65043;48.392;-4.472;2022-12-18T08:10:58;8.78;88.40
76239;SHT30;65043;48.392;-4.472;2022-12-18T08:13:23;8.81;88.47
76239;SHT30;65043;48.392;-4.472;2022-12-18T08:16:04;8.85;88.79
76239;SHT30;65043;48.392;-4.472;2022-12-18T08:18:32;8.86;88.65
76239;SHT30;65043;48.392;-4.472;2022-12-18T08:20:57;8.92;89.23
76239;SHT30;65043;48.392;-4.472;2022-12-18T08:23:23;8.98;89.32
76239;SHT30;65043;48.392;-4.472;2022-12-18T08:25:48;9.01;89.34
76239;SHT30;65043;48.392;-4.472;2022-12-18T08:28:16;9.06;89.15
76239;SHT30;65043;48.392;-4.472;2022-12-18T08:30:42;9.16;89.33
76239;SHT30;65043;48.392;-4.472;2022-12-18T08:33:07;9.22;88.89
76239;SHT30;65043;48.392;-4.472;2022-12-18T08:35:36;9.22;88.98
76239;SHT30;65043;48.392;-4.472;2022-12-18T08:38:02;9.29;89.13
76239;SHT30;65043;48.392;-4.472;2022-12-18T08:40:27;9.33;89.19
76239;SHT30;65043;48.392;-4.472;2022-12-18T08:42:52;9.40;89.45
76239;SHT30;65043;48.392;-4.472;2022-12-18T08:45:36;9.44;89.74
76239;SHT30;65043;48.392;-4.472;2022-12-18T08:48:02;9.51;89.72
76239;SHT30;65043;48.392;-4.472;2022-12-18T08:50:27;9.56;89.72
76239;SHT30;65043;48.392;-4.472;2022-12-18T08:52:53;9.61;89.92
76239;SHT30;65043;48.392;-4.472;2022-12-18T08:55:18;9.70;89.24
76239;SHT30;65043;48.392;-4.472;2022-12-18T08:57:48;9.75;89.59
76239;SHT30;65043;48.392;-4.472;2022-12-18T09:00:14;9.83;89.57
76239;SHT30;65043;48.392;-4.472;2022-12-18T09:02:39;9.90;89.48
76239;SHT30;65043;48.392;-4.472;2022-12-18T09:05:05;9.97;88.95
76239;SHT30;65043;48.392;-4.472;2022-12-18T09:07:30;10.02;88.96
76239;SHT30;65043;48.392;-4.472;2022-12-18T09:09:56;10.08;88.91
76239;SHT30;65043;48.392;-4.472;2022-12-18T09:12:21;10.11;89.42
76239;SHT30;65043;48.392;-4.472;2022-12-18T09:14:46;10.14;89.08
76239;SHT30;65043;48.392;-4.472;2022-12-18T09:17:12;10.18;88.43
76239;SHT30;65043;48.392;-4.472;2022-12-18T09:19:37;10.24;88.82
76239;SHT30;65043;48.392;-4.472;2022-12-18T09:22:03;10.24;88.44
76239;SHT30;65043;48.392;-4.472;2022-12-18T09:24:28;10.28;88.89
76239;SHT30;65043;48.392;-4.472;2022-12-18T09:26:53;10.28;88.31
76239;SHT30;65043;48.392;-4.472;2022-12-18T09:29:20;10.31;88.36
76239;SHT30;65043;48.392;-4.472;2022-12-18T09:31:46;10.34;88.32
76239;SHT30;65043;48.392;-4.472;2022-12-18T09:34:12;10.35;88.78
76239;SHT30;65043;48.392;-4.472;2022-12-18T09:36:37;10.36;88.10
76239;SHT30;65043;48.392;-4.472;2022-12-18T09:39:03;10.36;87.76
76239;SHT30;65043;48.392;-4.472;2022-12-18T09:44:32;10.39;88.02
76239;SHT30;65043;48.392;-4.472;2022-12-18T09:47:19;10.39;88.30
76239;SHT30;65043;48.392;-4.472;2022-12-18T09:49:56;10.36;88.18
76239;SHT30;65043;48.392;-4.472;2022-12-18T09:55:00;10.41;88.39
76239;SHT30;65043;48.392;-4.472;2022-12-18T09:57:26;10.41;88.72
76239;SHT30;65043;48.392;-4.472;2022-12-18T10:00:16;10.43;88.49
76239;SHT30;65043;48.392;-4.472;2022-12-18T10:02:43;10.41;88.70
76239;SHT30;65043;48.392;-4.472;2022-12-18T10:05:28;10.42;88.83
76239;SHT30;65043;48.392;-4.472;2022-12-18T10:10:52;10.41;88.76
76239;SHT30;65043;48.392;-4.472;2022-12-18T10:16:12;10.45;88.27
76239;SHT30;65043;48.392;-4.472;2022-12-18T10:19:06;10.46;88.69
76239;SHT30;65043;48.392;-4.472;2022-12-18T10:21:45;10.49;88.72
76239;SHT30;65043;48.392;-4.472;2022-12-18T10:24:39;10.48;88.61
76239;SHT30;65043;48.392;-4.472;2022-12-18T10:27:14;10.46;88.52
76239;SHT30;65043;48.392;-4.472;2022-12-18T10:29:44;10.49;88.64
76239;SHT30;65043;48.392;-4.472;2022-12-18T10:32:19;10.52;88.65
76239;SHT30;65043;48.392;-4.472;2022-12-18T10:34:46;10.53;88.62
76239;SHT30;65043;48.392;-4.472;2022-12-18T10:37:17;10.53;88.59
76239;SHT30;65043;48.392;-4.472;2022-12-18T10:39:44;10.56;88.15
76239;SHT30;65043;48.392;-4.472;2022-12-18T10:42:16;10.57;88.16
76239;SHT30;65043;48.392;-4.472;2022-12-18T10:44:42;10.57;88.11
76239;SHT30;65043;48.392;-4.472;2022-12-18T10:47:13;10.59;88.18
76239;SHT30;65043;48.392;-4.472;2022-12-18T10:49:47;10.57;88.06
76239;SHT30;65043;48.392;-4.472;2022-12-18T10:54:51;10.57;88.12
76239;SHT30;65043;48.392;-4.472;2022-12-18T10:59:57;10.60;88.49
76239;SHT30;65043;48.392;-4.472;2022-12-18T11:02:35;10.62;88.36
76239;SHT30;65043;48.392;-4.472;2022-12-18T11:05:02;10.64;88.63
76239;SHT30;65043;48.392;-4.472;2022-12-18T11:07:50;10.63;88.58
76239;SHT30;65043;48.392;-4.472;2022-12-18T11:10:21;10.66;88.53
76239;SHT30;65043;48.392;-4.472;2022-12-18T11:12:47;10.66;88.58
76239;SHT30;65043;48.392;-4.472;2022-12-18T11:15:23;10.69;88.60
76239;SHT30;65043;48.392;-4.472;2022-12-18T11:17:51;10.72;88.21
76239;SHT30;65043;48.392;-4.472;2022-12-18T11:20:35;10.72;88.37
76239;SHT30;65043;48.392;-4.472;2022-12-18T11:23:11;10.69;88.39
76239;SHT30;65043;48.392;-4.472;2022-12-18T11:25:37;10.70;88.08
76239;SHT30;65043;48.392;-4.472;2022-12-18T11:30:47;10.73;88.41
76239;SHT30;65043;48.392;-4.472;2022-12-18T11:33:20;10.74;88.44
76239;SHT30;65043;48.392;-4.472;2022-12-18T11:35:52;10.74;88.51
76239;SHT30;65043;48.392;-4.472;2022-12-18T11:38:26;10.74;88.65
76239;SHT30;65043;48.392;-4.472;2022-12-18T11:43:54;10.80;88.44
76239;SHT30;65043;48.392;-4.472;2022-12-18T11:46:41;10.80;88.48
76239;SHT30;65043;48.392;-4.472;2022-12-18T11:49:20;10.83;88.69
76239;SHT30;65043;48.392;-4.472;2022-12-18T11:51:51;10.80;88.74
76239;SHT30;65043;48.392;-4.472;2022-12-18T11:54:18;10.83;88.79
76239;SHT30;65043;48.392;-4.472;2022-12-18T11:56:49;10.81;88.45
76239;SHT30;65043;48.392;-4.472;2022-12-18T12:09:47;10.81;88.78
76239;SHT30;65043;48.392;-4.472;2022-12-18T12:14:46;10.87;88.62
76239;SHT30;65043;48.392;-4.472;2022-12-18T12:17:37;10.90;88.44
76239;SHT30;65043;48.392;-4.472;2022-12-18T12:25:50;10.92;88.28
76239;SHT30;65043;48.392;-4.472;2022-12-18T12:38:42;10.96;88.52
76239;SHT30;65043;48.392;-4.472;2022-12-18T12:41:26;10.94;88.63
76239;SHT30;65043;48.392;-4.472;2022-12-18T12:44:25;10.96;88.70
76239;SHT30;65043;48.392;-4.472;2022-12-18T12:46:56;10.96;88.42
76239;SHT30;65043;48.392;-4.472;2022-12-18T12:49:26;10.97;88.59
76239;SHT30;65043;48.392;-4.472;2022-12-18T12:52:20;10.97;88.43
76239;SHT30;65043;48.392;-4.472;2022-12-18T12:54:47;11.00;88.33
76239;SHT30;65043;48.392;-4.472;2022-12-18T12:57:20;11.00;88.70
76239;SHT30;65043;48.392;-4.472;2022-12-18T13:00:07;11.03;88.83
76239;SHT30;65043;48.392;-4.472;2022-12-18T13:05:55;11.06;88.95
76239;SHT30;65043;48.392;-4.472;2022-12-18T13:08:27;11.04;89.37
76239;SHT30;65043;48.392;-4.472;2022-12-18T13:10:54;11.06;88.87
76239;SHT30;65043;48.392;-4.472;2022-12-18T13:16:19;11.07;89.24
76239;SHT30;65043;48.392;-4.472;2022-12-18T13:18:53;11.10;89.27
76239;SHT30;65043;48.392;-4.472;2022-12-18T13:21:28;11.17;88.93
76239;SHT30;65043;48.392;-4.472;2022-12-18T13:23:55;11.17;89.03
76239;SHT30;65043;48.392;-4.472;2022-12-18T13:26:39;11.18;89.18
76239;SHT30;65043;48.392;-4.472;2022-12-18T13:29:04;11.18;89.18
76239;SHT30;65043;48.392;-4.472;2022-12-18T13:34:23;11.24;89.20
76239;SHT30;65043;48.392;-4.472;2022-12-18T13:36:49;11.23;89.15
76239;SHT30;65043;48.392;-4.472;2022-12-18T13:41:45;11.25;89.14
76239;SHT30;65043;48.392;-4.472;2022-12-18T13:46:59;11.23;89.05
76239;SHT30;65043;48.392;-4.472;2022-12-18T13:49:36;11.24;89.23
76239;SHT30;65043;48.392;-4.472;2022-12-18T13:52:03;11.27;88.97
76239;SHT30;65043;48.392;-4.472;2022-12-18T13:54:40;11.25;89.35
76239;SHT30;65043;48.392;-4.472;2022-12-18T13:57:43;11.24;89.45
76239;SHT30;65043;48.392;-4.472;2022-12-18T14:00:28;11.23;89.45
76239;SHT30;65043;48.392;-4.472;2022-12-18T14:02:55;11.23;89.64
76239;SHT30;65043;48.392;-4.472;2022-12-18T14:05:26;11.23;89.73
76239;SHT30;65043;48.392;-4.472;2022-12-18T14:07:53;11.23;89.79
76239;SHT30;65043;48.392;-4.472;2022-12-18T14:10:19;11.25;89.72
76239;SHT30;65043;48.392;-4.472;2022-12-18T14:12:47;11.23;89.61
76239;SHT30;65043;48.392;-4.472;2022-12-18T14:18:12;11.23;89.55
76239;SHT30;65043;48.392;-4.472;2022-12-18T14:20:43;11.23;89.51
76239;SHT30;65043;48.392;-4.472;2022-12-18T14:25:51;11.25;89.67
76239;SHT30;65043;48.392;-4.472;2022-12-18T14:28:16;11.28;89.83
76239;SHT30;65043;48.392;-4.472;2022-12-18T14:30:44;11.28;89.96
76239;SHT30;65043;48.392;-4.472;2022-12-18T14:33:12;11.31;89.85
76239;SHT30;65043;48.392;-4.472;2022-12-18T14:35:41;11.32;89.71
76239;SHT30;65043;48.392;-4.472;2022-12-18T14:40:42;11.34;89.68
76239;SHT30;65043;48.392;-4.472;2022-12-18T14:43:11;11.35;89.78
76239;SHT30;65043;48.392;-4.472;2022-12-18T14:45:41;11.35;89.88
76239;SHT30;65043;48.392;-4.472;2022-12-18T14:50:44;11.39;89.76
76239;SHT30;65043;48.392;-4.472;2022-12-18T14:53:22;11.39;89.94
76239;SHT30;65043;48.392;-4.472;2022-12-18T14:55:49;11.41;89.85
76239;SHT30;65043;48.392;-4.472;2022-12-18T14:58:17;11.41;89.74
76239;SHT30;65043;48.392;-4.472;2022-12-18T15:00:43;11.41;89.88
76239;SHT30;65043;48.392;-4.472;2022-12-18T15:03:09;11.42;89.87
76239;SHT30;65043;48.392;-4.472;2022-12-18T15:05:35;11.41;89.89
76239;SHT30;65043;48.392;-4.472;2022-12-18T15:08:01;11.44;89.88
76239;SHT30;65043;48.392;-4.472;2022-12-18T15:10:32;11.45;89.63
76239;SHT30;65043;48.392;-4.472;2022-12-18T15:23:23;11.51;89.68
76239;SHT30;65043;48.392;-4.472;2022-12-18T15:31:41;11.55;89.52
76239;SHT30;65043;48.392;-4.472;2022-12-18T15:36:17;11.61;88.92
76239;SHT30;65043;48.392;-4.472;2022-12-18T15:38:49;11.59;89.17
76239;SHT30;65043;48.392;-4.472;2022-12-18T15:41:18;11.59;89.02
76239;SHT30;65043;48.392;-4.472;2022-12-18T15:43:45;11.66;88.90
76239;SHT30;65043;48.392;-4.472;2022-12-18T15:46:14;11.63;88.85
76239;SHT30;65043;48.392;-4.472;2022-12-18T15:48:45;11.63;88.61
76239;SHT30;65043;48.392;-4.472;2022-12-18T15:51:26;11.66;88.56
76239;SHT30;65043;48.392;-4.472;2022-12-18T15:53:54;11.69;88.51
76239;SHT30;65043;48.392;-4.472;2022-12-18T15:56:21;11.65;88.52
76239;SHT30;65043;48.392;-4.472;2022-12-18T15:59:17;11.65;88.40
76239;SHT30;65043;48.392;-4.472;2022-12-18T16:01:47;11.66;88.42
76239;SHT30;65043;48.392;-4.472;2022-12-18T16:04:15;11.63;88.40
76239;SHT30;65043;48.392;-4.472;2022-12-18T16:06:41;11.63;88.41
76239;SHT30;65043;48.392;-4.472;2022-12-18T16:09:06;11.62;88.33
76239;SHT30;65043;48.392;-4.472;2022-12-18T16:11:33;11.63;88.39
76239;SHT30;65043;48.392;-4.472;2022-12-18T16:16:40;11.65;88.31
76239;SHT30;65043;48.392;-4.472;2022-12-18T16:19:06;11.66;88.25
76239;SHT30;65043;48.392;-4.472;2022-12-18T16:21:32;11.69;88.20
76239;SHT30;65043;48.392;-4.472;2022-12-18T16:23:57;11.69;88.32
76239;SHT30;65043;48.392;-4.472;2022-12-18T16:26:22;11.72;88.45
76239;SHT30;65043;48.392;-4.472;2022-12-18T16:28:48;11.72;88.45
76239;SHT30;65043;48.392;-4.472;2022-12-18T16:31:13;11.73;88.43
76239;SHT30;65043;48.392;-4.472;2022-12-18T16:33:39;11.75;88.35
76239;SHT30;65043;48.392;-4.472;2022-12-18T16:36:05;11.82;88.16
76239;SHT30;65043;48.392;-4.472;2022-12-18T16:38:30;11.83;88.13
76239;SHT30;65043;48.392;-4.472;2022-12-18T16:40:56;11.92;87.93
76239;SHT30;65043;48.392;-4.472;2022-12-18T16:43:39;11.97;87.52
76239;SHT30;65043;48.392;-4.472;2022-12-18T16:46:05;12.03;87.44
76239;SHT30;65043;48.392;-4.472;2022-12-18T16:48:30;12.03;87.25
76239;SHT30;65043;48.392;-4.472;2022-12-18T16:51:03;12.06;87.11
76239;SHT30;65043;48.392;-4.472;2022-12-18T16:53:29;12.12;87.22
76239;SHT30;65043;48.392;-4.472;2022-12-18T16:55:56;12.14;87.00
76239;SHT30;65043;48.392;-4.472;2022-12-18T16:58:21;12.22;86.65
76239;SHT30;65043;48.392;-4.472;2022-12-18T17:00:47;12.23;86.51
76239;SHT30;65043;48.392;-4.472;2022-12-18T17:03:12;12.24;86.52
76239;SHT30;65043;48.392;-4.472;2022-12-18T17:05:38;12.30;86.40
76239;SHT30;65043;48.392;-4.472;2022-12-18T17:08:03;12.30;86.26
76239;SHT30;65043;48.392;-4.472;2022-12-18T17:10:29;12.34;86.25
76239;SHT30;65043;48.392;-4.472;2022-12-18T17:12:54;12.36;85.98
76239;SHT30;65043;48.392;-4.472;2022-12-18T17:15:20;12.36;86.15
76239;SHT30;65043;48.392;-4.472;2022-12-18T17:17:45;12.37;86.21
76239;SHT30;65043;48.392;-4.472;2022-12-18T17:20:11;12.40;86.11
76239;SHT30;65043;48.392;-4.472;2022-12-18T17:22:36;12.41;86.06
76239;SHT30;65043;48.392;-4.472;2022-12-18T17:25:02;12.43;86.04
76239;SHT30;65043;48.392;-4.472;2022-12-18T17:27:27;12.47;85.92
76239;SHT30;65043;48.392;-4.472;2022-12-18T17:29:53;12.45;86.22
76239;SHT30;65043;48.392;-4.472;2022-12-18T17:32:18;12.45;86.29
76239;SHT30;65043;48.392;-4.472;2022-12-18T17:34:44;12.51;86.14
76239;SHT30;65043;48.392;-4.472;2022-12-18T17:37:09;12.51;86.17
76239;SHT30;65043;48.392;-4.472;2022-12-18T17:39:35;12.55;86.28
76239;SHT30;65043;48.392;-4.472;2022-12-18T17:42:01;12.53;86.68
76239;SHT30;65043;48.392;-4.472;2022-12-18T17:44:26;12.51;87.21